sensor_id;sensor_type;location;lat;lon;timestamp;pressure;altitude;pressure_sealevel;temperature;humidity
11198;BME280;5655;48.744;9.162;2023-08-30T00:00:40;95540.16;;;15.62;100.00
11198;BME280;5655;48.744;9.162;2023-08-30T00:03:05;95536.44;;;15.56;100.00
11198;BME280;5655;48.744;9.162;2023-08-30T00:05:31;95551.66;;;15.66;100.00
11198;BME280;5655;48.744;9.162;2023-08-30T00:07:57;95548.63;;;15.64;100.00
11198;BME280;5655;48.744;9.162;2023-08-30T00:10:23;95537.50;;;15.82;100.00
11198;BME280;5655;48.744;9.162;2023-08-30T00:12:49;95536.19;;;15.70;100.00
11198;BME280;5655;48.744;9.162;2023-08-30T00:15:14;95539.75;;;15.83;100.00
11198;BME280;5655;48.744;9.162;2023-08-30T00:17:40;95530.06;;;15.66;100.00
11198;BME280;5655;48.744;9.162;2023-08-30T00:20:06;95529.75;;;15.41;100.00
11198;BME280;5655;48.744;9.162;2023-08-30T00:22:32;95535.28;;;15.34;100.00
11198;BME280;5655;48.744;9.162;2023-08-30T00:24:57;95539.53;;;15.12;100.00
11198;BME280;5655;48.744;9.162;2023-08-30T00:27:23;95544.84;;;15.15;100.00
11198;BME280;5655;48.744;9.162;2023-08-30T00:29:48;95534.09;;;15.58;100.00
11198;BME280;5655;48.744;9.162;2023-08-30T00:32:13;95536.81;;;15.35;100.00
11198;BME280;5655;48.744;9.162;2023-08-30T00:34:39;95528.84;;;15.51;100.00
11198;BME280;5655;48.744;9.162;2023-08-30T00:37:04;95527.59;;;15.75;100.00
11198;BME280;5655;48.744;9.162;2023-08-30T00:39:29;95521.56;;;15.68;100.00
11198;BME280;5655;48.744;9.162;2023-08-30T00:41:55;95520.72;;;15.71;100.00
11198;BME280;5655;48.744;9.162;2023-08-30T00:44:20;95511.00;;;15.57;100.00
11198;BME280;5655;48.744;9.162;2023-08-30T00:46:46;95515.09;;;15.42;100.00
11198;BME280;5655;48.744;9.162;2023-08-30T00:49:13;95515.03;;;15.26;100.00
11198;BME280;5655;48.744;9.162;2023-08-30T00:51:39;95514.34;;;15.41;100.00
11198;BME280;5655;48.744;9.162;2023-08-30T00:54:04;95510.03;;;15.24;100.00
11198;BME280;5655;48.744;9.162;2023-08-30T00:56:30;95508.81;;;15.29;100.00
11198;BME280;5655;48.744;9.162;2023-08-30T00:58:56;95507.00;;;15.42;100.00
11198;BME280;5655;48.744;9.162;2023-08-30T01:01:22;95510.03;;;15.24;100.00
11198;BME280;5655;48.744;9.162;2023-08-30T01:03:48;95504.47;;;15.35;100.00
11198;BME280;5655;48.744;9.162;2023-08-30T01:06:13;95501.41;;;15.33;100.00
11198;BME280;5655;48.744;9.162;2023-08-30T01:08:39;95497.00;;;15.23;100.00
11198;BME280;5655;48.744;9.162;2023-08-30T01:11:20;95503.34;;;15.32;100.00
11198;BME280;5655;48.744;9.162;2023-08-30T01:14:02;95504.47;;;15.35;100.00
11198;BME280;5655;48.744;9.162;2023-08-30T01:16:30;95503.25;;;15.16;100.00
11198;BME280;5655;48.744;9.162;2023-08-30T01:18:57;95509.75;;;15.19;100.00
11198;BME280;5655;48.744;9.162;2023-08-30T01:25:05;95499.47;;;15.14;100.00
11198;BME280;5655;48.744;9.162;2023-08-30T01:27:11;95500.41;;;15.04;100.00
11198;BME280;5655;48.744;9.162;2023-08-30T01:29:37;95504.16;;;15.10;100.00
11198;BME280;5655;48.744;9.162;2023-08-30T01:32:05;95506.19;;;15.02;100.00
11198;BME280;5655;48.744;9.162;2023-08-30T01:34:32;95504.41;;;14.95;100.00
11198;BME280;5655;48.744;9.162;2023-08-30T01:36:59;95501.72;;;14.95;100.00
11198;BME280;5655;48.744;9.162;2023-08-30T01:39:26;95512.56;;;14.92;100.00
11198;BME280;5655;48.744;9.162;2023-08-30T01:41:53;95512.50;;;15.15;100.00
11198;BME280;5655;48.744;9.162;2023-08-30T01:44:27;95509.06;;;15.15;100.00
11198;BME280;5655;48.744;9.162;2023-08-30T01:46:53;95503.34;;;14.89;100.00
11198;BME280;5655;48.744;9.162;2023-08-30T01:49:19;95513.72;;;14.68;100.00
11198;BME280;5655;48.744;9.162;2023-08-30T01:51:45;95519.16;;;14.87;100.00
11198;BME280;5655;48.744;9.162;2023-08-30T01:54:13;95519.03;;;14.94;100.00
11198;BME280;5655;48.744;9.162;2023-08-30T01:56:42;95518.56;;;14.76;100.00
11198;BME280;5655;48.744;9.162;2023-08-30T01:59:07;95518.75;;;14.66;100.00
11198;BME280;5655;48.744;9.162;2023-08-30T02:01:32;95530.63;;;14.68;100.00
11198;BME280;5655;48.744;9.162;2023-08-30T02:03:58;95531.69;;;14.74;100.00
11198;BME280;5655;48.744;9.162;2023-08-30T02:07:11;95535.81;;;15.06;100.00
11198;BME280;5655;48.744;9.162;2023-08-30T02:12:15;95534.28;;;15.05;100.00
11198;BME280;5655;48.744;9.162;2023-08-30T02:14:47;95523.13;;;15.26;100.00
11198;BME280;5655;48.744;9.162;2023-08-30T02:17:17;95520.66;;;15.35;100.00
11198;BME280;5655;48.744;9.162;2023-08-30T02:19:43;95519.84;;;15.15;100.00
11198;BME280;5655;48.744;9.162;2023-08-30T02:22:09;95517.34;;;15.04;100.00
11198;BME280;5655;48.744;9.162;2023-08-30T02:24:34;95518.88;;;15.05;100.00
11198;BME280;5655;48.744;9.162;2023-08-30T02:26:59;95516.56;;;15.04;100.00
11198;BME280;5655;48.744;9.162;2023-08-30T02:29:25;95513.13;;;15.03;100.00
11198;BME280;5655;48.744;9.162;2023-08-30T02:31:50;95514.34;;;14.98;100.00
11198;BME280;5655;48.744;9.162;2023-08-30T02:34:15;95510.13;;;14.97;100.00
11198;BME280;5655;48.744;9.162;2023-08-30T02:36:41;95521.66;;;15.21;100.00
11198;BME280;5655;48.744;9.162;2023-08-30T02:39:06;95510.81;;;15.25;100.00
11198;BME280;5655;48.744;9.162;2023-08-30T02:41:31;95518.56;;;15.23;100.00
11198;BME280;5655;48.744;9.162;2023-08-30T02:43:57;95518.19;;;15.21;100.00
11198;BME280;5655;48.744;9.162;2023-08-30T02:46:22;95518.09;;;15.05;100.00
11198;BME280;5655;48.744;9.162;2023-08-30T02:48:47;95519.28;;;15.23;100.00
11198;BME280;5655;48.744;9.162;2023-08-30T02:51:13;95508.72;;;15.13;100.00
11198;BME280;5655;48.744;9.162;2023-08-30T02:53:38;95510.94;;;15.18;100.00
11198;BME280;5655;48.744;9.162;2023-08-30T02:56:03;95512.94;;;15.14;100.00
11198;BME280;5655;48.744;9.162;2023-08-30T02:58:29;95503.47;;;15.06;100.00
11198;BME280;5655;48.744;9.162;2023-08-30T03:00:54;95513.94;;;15.00;100.00
11198;BME280;5655;48.744;9.162;2023-08-30T03:03:19;95503.34;;;15.13;100.00
11198;BME280;5655;48.744;9.162;2023-08-30T03:05:44;95512.38;;;14.79;100.00
11198;BME280;5655;48.744;9.162;2023-08-30T03:08:10;95514.13;;;15.13;100.00
11198;BME280;5655;48.744;9.162;2023-08-30T03:10:35;95504.19;;;15.06;100.00
11198;BME280;5655;48.744;9.162;2023-08-30T03:13:00;95495.38;;;14.82;100.00
11198;BME280;5655;48.744;9.162;2023-08-30T03:15:26;95506.25;;;15.22;100.00
11198;BME280;5655;48.744;9.162;2023-08-30T03:17:51;95501.03;;;15.54;100.00
11198;BME280;5655;48.744;9.162;2023-08-30T03:20:16;95488.44;;;15.67;100.00
11198;BME280;5655;48.744;9.162;2023-08-30T03:22:42;95487.91;;;15.56;100.00
11198;BME280;5655;48.744;9.162;2023-08-30T03:25:07;95481.63;;;15.20;100.00
11198;BME280;5655;48.744;9.162;2023-08-30T03:27:34;95478.13;;;15.42;100.00
11198;BME280;5655;48.744;9.162;2023-08-30T03:30:00;95475.44;;;15.62;100.00
11198;BME280;5655;48.744;9.162;2023-08-30T03:32:26;95473.28;;;15.73;100.00
11198;BME280;5655;48.744;9.162;2023-08-30T03:34:51;95462.44;;;15.57;100.00
11198;BME280;5655;48.744;9.162;2023-08-30T03:37:17;95466.16;;;15.63;100.00
11198;BME280;5655;48.744;9.162;2023-08-30T03:39:42;95459.19;;;15.66;100.00
11198;BME280;5655;48.744;9.162;2023-08-30T03:42:08;95458.97;;;15.76;100.00
11198;BME280;5655;48.744;9.162;2023-08-30T03:44:34;95464.63;;;15.82;100.00
11198;BME280;5655;48.744;9.162;2023-08-30T03:46:59;95458.88;;;15.80;100.00
11198;BME280;5655;48.744;9.162;2023-08-30T03:49:24;95452.22;;;15.84;100.00
11198;BME280;5655;48.744;9.162;2023-08-30T03:51:50;95456.94;;;15.80;100.00
11198;BME280;5655;48.744;9.162;2023-08-30T03:54:15;95448.31;;;15.69;100.00
11198;BME280;5655;48.744;9.162;2023-08-30T03:56:44;95459.56;;;15.84;100.00
11198;BME280;5655;48.744;9.162;2023-08-30T03:59:09;95455.09;;;15.58;100.00
11198;BME280;5655;48.744;9.162;2023-08-30T04:01:34;95462.16;;;15.71;100.00
11198;BME280;5655;48.744;9.162;2023-08-30T04:04:00;95463.94;;;15.58;100.00
11198;BME280;5655;48.744;9.162;2023-08-30T04:06:25;95459.31;;;15.39;100.00
11198;BME280;5655;48.744;9.162;2023-08-30T04:08:50;95459.38;;;15.16;100.00
11198;BME280;5655;48.744;9.162;2023-08-30T04:11:16;95456.66;;;15.16;100.00
11198;BME280;5655;48.744;9.162;2023-08-30T04:13:41;95461.38;;;15.12;100.00
11198;BME280;5655;48.744;9.162;2023-08-30T04:16:06;95465.16;;;14.94;100.00
11198;BME280;5655;48.744;9.162;2023-08-30T04:18:32;95465.84;;;14.98;100.00
11198;BME280;5655;48.744;9.162;2023-08-30T04:20:58;95465.75;;;15.06;100.00
11198;BME280;5655;48.744;9.162;2023-08-30T04:23:23;95471.06;;;15.29;100.00
11198;BME280;5655;48.744;9.162;2023-08-30T04:25:49;95466.97;;;15.01;100.00
11198;BME280;5655;48.744;9.162;2023-08-30T04:28:14;95474.06;;;14.91;100.00
11198;BME280;5655;48.744;9.162;2023-08-30T04:30:39;95477.53;;;14.92;100.00
11198;BME280;5655;48.744;9.162;2023-08-30T04:33:05;95468.78;;;14.84;100.00
11198;BME280;5655;48.744;9.162;2023-08-30T04:35:30;95472.06;;;14.95;100.00
11198;BME280;5655;48.744;9.162;2023-08-30T04:38:01;95473.53;;;15.00;100.00
11198;BME280;5655;48.744;9.162;2023-08-30T04:40:27;95475.75;;;14.82;100.00
11198;BME280;5655;48.744;9.162;2023-08-30T04:42:52;95483.78;;;14.85;100.00
11198;BME280;5655;48.744;9.162;2023-08-30T04:45:17;95487.91;;;14.70;100.00
11198;BME280;5655;48.744;9.162;2023-08-30T04:47:43;95493.03;;;14.84;100.00
11198;BME280;5655;48.744;9.162;2023-08-30T04:50:10;95488.94;;;14.99;100.00
11198;BME280;5655;48.744;9.162;2023-08-30T04:52:36;95488.78;;;15.07;100.00
11198;BME280;5655;48.744;9.162;2023-08-30T04:55:01;95477.41;;;15.19;100.00
11198;BME280;5655;48.744;9.162;2023-08-30T04:57:27;95475.69;;;15.09;100.00
11198;BME280;5655;48.744;9.162;2023-08-30T04:59:52;95475.00;;;15.05;100.00
11198;BME280;5655;48.744;9.162;2023-08-30T05:02:18;95469.53;;;15.08;100.00
11198;BME280;5655;48.744;9.162;2023-08-30T05:04:43;95467.13;;;15.14;100.00
11198;BME280;5655;48.744;9.162;2023-08-30T05:07:08;95462.00;;;15.19;100.00
11198;BME280;5655;48.744;9.162;2023-08-30T05:09:34;95466.44;;;15.10;100.00
11198;BME280;5655;48.744;9.162;2023-08-30T05:12:00;95463.41;;;14.84;100.00
11198;BME280;5655;48.744;9.162;2023-08-30T05:14:25;95469.72;;;14.97;100.00
11198;BME280;5655;48.744;9.162;2023-08-30T05:16:50;95467.69;;;14.82;100.00
11198;BME280;5655;48.744;9.162;2023-08-30T05:19:16;95472.47;;;14.94;100.00
11198;BME280;5655;48.744;9.162;2023-08-30T05:21:44;95466.22;;;14.77;100.00
11198;BME280;5655;48.744;9.162;2023-08-30T05:24:10;95477.22;;;14.86;100.00
11198;BME280;5655;48.744;9.162;2023-08-30T05:26:36;95469.22;;;14.83;100.00
11198;BME280;5655;48.744;9.162;2023-08-30T05:29:01;95475.78;;;15.02;100.00
11198;BME280;5655;48.744;9.162;2023-08-30T05:31:27;95471.69;;;15.17;100.00
11198;BME280;5655;48.744;9.162;2023-08-30T05:33:52;95473.97;;;15.18;100.00
11198;BME280;5655;48.744;9.162;2023-08-30T05:36:17;95466.13;;;15.04;100.00
11198;BME280;5655;48.744;9.162;2023-08-30T05:38:43;95468.22;;;14.96;100.00
11198;BME280;5655;48.744;9.162;2023-08-30T05:41:09;95459.03;;;14.71;100.00
11198;BME280;5655;48.744;9.162;2023-08-30T05:43:34;95468.38;;;14.86;100.00
11198;BME280;5655;48.744;9.162;2023-08-30T05:45:59;95473.22;;;14.75;100.00
11198;BME280;5655;48.744;9.162;2023-08-30T05:48:28;95472.38;;;15.01;100.00
11198;BME280;5655;48.744;9.162;2023-08-30T05:50:53;95470.41;;;15.02;100.00
11198;BME280;5655;48.744;9.162;2023-08-30T05:53:18;95467.94;;;15.11;100.00
11198;BME280;5655;48.744;9.162;2023-08-30T05:55:44;95472.22;;;14.88;100.00
11198;BME280;5655;48.744;9.162;2023-08-30T05:58:09;95464.75;;;15.16;100.00
11198;BME280;5655;48.744;9.162;2023-08-30T06:00:34;95473.91;;;15.22;100.00
11198;BME280;5655;48.744;9.162;2023-08-30T06:02:59;95475.47;;;15.19;100.00
11198;BME280;5655;48.744;9.162;2023-08-30T06:05:26;95473.31;;;15.11;100.00
11198;BME280;5655;48.744;9.162;2023-08-30T06:07:51;95474.22;;;15.24;100.00
11198;BME280;5655;48.744;9.162;2023-08-30T06:10:16;95469.94;;;15.07;100.00
11198;BME280;5655;48.744;9.162;2023-08-30T06:12:42;95461.84;;;15.07;100.00
11198;BME280;5655;48.744;9.162;2023-08-30T06:15:07;95474.59;;;15.45;100.00
11198;BME280;5655;48.744;9.162;2023-08-30T06:17:33;95471.13;;;15.45;100.00
11198;BME280;5655;48.744;9.162;2023-08-30T06:19:58;95470.44;;;15.21;100.00
11198;BME280;5655;48.744;9.162;2023-08-30T06:22:23;95472.91;;;15.32;100.00
11198;BME280;5655;48.744;9.162;2023-08-30T06:24:48;95475.34;;;15.26;100.00
11198;BME280;5655;48.744;9.162;2023-08-30T06:27:14;95473.69;;;15.32;100.00
11198;BME280;5655;48.744;9.162;2023-08-30T06:29:39;95469.91;;;15.30;100.00
11198;BME280;5655;48.744;9.162;2023-08-30T06:32:04;95470.16;;;15.16;100.00
11198;BME280;5655;48.744;9.162;2023-08-30T06:34:30;95478.19;;;15.39;100.00
11198;BME280;5655;48.744;9.162;2023-08-30T06:36:55;95474.38;;;15.36;100.00
11198;BME280;5655;48.744;9.162;2023-08-30T06:39:20;95480.41;;;15.44;100.00
11198;BME280;5655;48.744;9.162;2023-08-30T06:41:46;95472.66;;;15.46;100.00
11198;BME280;5655;48.744;9.162;2023-08-30T06:44:11;95472.72;;;15.42;100.00
11198;BME280;5655;48.744;9.162;2023-08-30T06:46:36;95472.31;;;15.44;100.00
11198;BME280;5655;48.744;9.162;2023-08-30T06:49:03;95474.50;;;15.49;100.00
11198;BME280;5655;48.744;9.162;2023-08-30T06:51:28;95467.84;;;15.57;100.00
11198;BME280;5655;48.744;9.162;2023-08-30T06:53:53;95470.72;;;15.66;100.00
11198;BME280;5655;48.744;9.162;2023-08-30T06:56:20;95472.25;;;15.67;100.00
11198;BME280;5655;48.744;9.162;2023-08-30T06:58:45;95469.41;;;15.74;100.00
11198;BME280;5655;48.744;9.162;2023-08-30T07:01:11;95466.56;;;15.81;100.00
11198;BME280;5655;48.744;9.162;2023-08-30T07:03:36;95469.91;;;15.69;100.00
11198;BME280;5655;48.744;9.162;2023-08-30T07:06:01;95461.25;;;15.78;100.00
11198;BME280;5655;48.744;9.162;2023-08-30T07:08:27;95466.88;;;15.83;100.00
11198;BME280;5655;48.744;9.162;2023-08-30T07:10:52;95463.00;;;15.68;100.00
11198;BME280;5655;48.744;9.162;2023-08-30T07:13:17;95464.75;;;15.75;100.00
11198;BME280;5655;48.744;9.162;2023-08-30T07:15:43;95468.34;;;15.52;100.00
11198;BME280;5655;48.744;9.162;2023-08-30T07:18:09;95466.78;;;15.71;100.00
11198;BME280;5655;48.744;9.162;2023-08-30T07:20:35;95469.34;;;15.58;100.00
11198;BME280;5655;48.744;9.162;2023-08-30T07:23:02;95458.63;;;15.55;100.00
11198;BME280;5655;48.744;9.162;2023-08-30T07:25:27;95466.31;;;15.56;100.00
11198;BME280;5655;48.744;9.162;2023-08-30T07:27:52;95453.25;;;15.55;100.00
11198;BME280;5655;48.744;9.162;2023-08-30T07:30:18;95463.28;;;15.54;100.00
11198;BME280;5655;48.744;9.162;2023-08-30T07:32:43;95460.34;;;15.45;100.00
11198;BME280;5655;48.744;9.162;2023-08-30T07:35:08;95458.31;;;15.53;100.00
11198;BME280;5655;48.744;9.162;2023-08-30T07:37:34;95463.00;;;15.68;100.00
11198;BME280;5655;48.744;9.162;2023-08-30T07:40:00;95467.53;;;15.71;100.00
11198;BME280;5655;48.744;9.162;2023-08-30T07:42:25;95460.34;;;15.45;100.00
11198;BME280;5655;48.744;9.162;2023-08-30T07:44:51;95456.00;;;15.51;100.00
11198;BME280;5655;48.744;9.162;2023-08-30T07:47:16;95461.69;;;15.93;100.00
11198;BME280;5655;48.744;9.162;2023-08-30T07:49:42;95472.66;;;15.85;100.00
11198;BME280;5655;48.744;9.162;2023-08-30T07:52:07;95466.09;;;15.67;100.00
11198;BME280;5655;48.744;9.162;2023-08-30T07:54:36;95468.38;;;15.68;100.00
11198;BME280;5655;48.744;9.162;2023-08-30T07:57:02;95467.59;;;15.87;100.00
11198;BME280;5655;48.744;9.162;2023-08-30T07:59:27;95466.28;;;15.96;100.00
11198;BME280;5655;48.744;9.162;2023-08-30T08:01:53;95470.47;;;15.97;100.00
11198;BME280;5655;48.744;9.162;2023-08-30T08:04:18;95465.50;;;15.95;100.00
11198;BME280;5655;48.744;9.162;2023-08-30T08:06:44;95462.69;;;15.82;100.00
11198;BME280;5655;48.744;9.162;2023-08-30T08:09:09;95466.69;;;16.10;100.00
11198;BME280;5655;48.744;9.162;2023-08-30T08:11:34;95472.34;;;16.00;100.00
11198;BME280;5655;48.744;9.162;2023-08-30T08:13:59;95475.22;;;16.09;100.00
11198;BME280;5655;48.744;9.162;2023-08-30T08:16:25;95469.16;;;16.05;100.00
11198;BME280;5655;48.744;9.162;2023-08-30T08:18:50;95468.09;;;15.82;100.00
11198;BME280;5655;48.744;9.162;2023-08-30T08:21:17;95475.19;;;15.93;100.00
11198;BME280;5655;48.744;9.162;2023-08-30T08:23:42;95466.41;;;15.53;100.00
11198;BME280;5655;48.744;9.162;2023-08-30T08:26:08;95458.28;;;15.72;100.00
11198;BME280;5655;48.744;9.162;2023-08-30T08:28:33;95461.97;;;16.14;100.00
11198;BME280;5655;48.744;9.162;2023-08-30T08:30:58;95454.22;;;16.16;100.00
11198;BME280;5655;48.744;9.162;2023-08-30T08:33:24;95465.63;;;16.24;100.00
11198;BME280;5655;48.744;9.162;2023-08-30T08:35:50;95459.03;;;16.25;100.00
11198;BME280;5655;48.744;9.162;2023-08-30T08:38:15;95466.97;;;16.32;100.00
11198;BME280;5655;48.744;9.162;2023-08-30T08:40:40;95462.56;;;16.06;100.00
11198;BME280;5655;48.744;9.162;2023-08-30T08:43:06;95455.00;;;16.17;100.00
11198;BME280;5655;48.744;9.162;2023-08-30T08:45:35;95465.00;;;16.68;100.00
11198;BME280;5655;48.744;9.162;2023-08-30T08:48:03;95461.19;;;16.82;100.00
11198;BME280;5655;48.744;9.162;2023-08-30T08:50:31;95466.44;;;17.02;100.00
11198;BME280;5655;48.744;9.162;2023-08-30T08:52:57;95459.81;;;16.74;100.00
11198;BME280;5655;48.744;9.162;2023-08-30T08:55:22;95443.22;;;16.59;100.00
11198;BME280;5655;48.744;9.162;2023-08-30T08:57:48;95448.06;;;16.81;100.00
11198;BME280;5655;48.744;9.162;2023-08-30T09:00:14;95456.88;;;16.68;100.00
11198;BME280;5655;48.744;9.162;2023-08-30T09:02:42;95454.81;;;17.17;100.00
11198;BME280;5655;48.744;9.162;2023-08-30T09:05:08;95448.19;;;16.61;100.00
11198;BME280;5655;48.744;9.162;2023-08-30T09:07:34;95454.09;;;17.01;100.00
11198;BME280;5655;48.744;9.162;2023-08-30T09:10:00;95449.19;;;17.41;100.00
11198;BME280;5655;48.744;9.162;2023-08-30T09:12:26;95452.88;;;17.18;100.00
11198;BME280;5655;48.744;9.162;2023-08-30T09:14:55;95451.47;;;17.42;100.00
11198;BME280;5655;48.744;9.162;2023-08-30T09:17:21;95463.66;;;17.63;100.00
11198;BME280;5655;48.744;9.162;2023-08-30T09:19:46;95468.69;;;17.77;100.00
11198;BME280;5655;48.744;9.162;2023-08-30T09:22:11;95467.69;;;17.84;100.00
11198;BME280;5655;48.744;9.162;2023-08-30T09:24:38;95478.41;;;17.87;100.00
11198;BME280;5655;48.744;9.162;2023-08-30T09:27:04;95471.03;;;17.75;100.00
11198;BME280;5655;48.744;9.162;2023-08-30T09:29:30;95469.78;;;18.05;100.00
11198;BME280;5655;48.744;9.162;2023-08-30T09:31:57;95462.94;;;18.13;100.00
11198;BME280;5655;48.744;9.162;2023-08-30T09:34:26;95468.28;;;18.54;100.00
11198;BME280;5655;48.744;9.162;2023-08-30T09:36:52;95465.97;;;18.40;100.00
11198;BME280;5655;48.744;9.162;2023-08-30T09:39:18;95465.41;;;18.83;100.00
11198;BME280;5655;48.744;9.162;2023-08-30T09:41:45;95472.63;;;18.99;100.00
11198;BME280;5655;48.744;9.162;2023-08-30T09:44:11;95475.50;;;19.39;100.00
11198;BME280;5655;48.744;9.162;2023-08-30T09:46:49;95463.69;;;19.33;100.00
11198;BME280;5655;48.744;9.162;2023-08-30T09:49:14;95470.78;;;19.30;100.00
11198;BME280;5655;48.744;9.162;2023-08-30T09:51:41;95465.59;;;19.23;100.00
11198;BME280;5655;48.744;9.162;2023-08-30T09:54:15;95467.81;;;19.59;100.00
11198;BME280;5655;48.744;9.162;2023-08-30T09:56:41;95474.41;;;19.71;100.00
11198;BME280;5655;48.744;9.162;2023-08-30T09:59:10;95486.59;;;20.19;100.00
11198;BME280;5655;48.744;9.162;2023-08-30T10:01:36;95487.59;;;20.12;100.00
11198;BME280;5655;48.744;9.162;2023-08-30T10:04:02;95483.72;;;20.22;100.00
11198;BME280;5655;48.744;9.162;2023-08-30T10:06:29;95498.41;;;20.03;100.00
11198;BME280;5655;48.744;9.162;2023-08-30T10:08:55;95493.56;;;20.29;100.00
11198;BME280;5655;48.744;9.162;2023-08-30T10:11:21;95508.69;;;20.30;100.00
11198;BME280;5655;48.744;9.162;2023-08-30T10:13:47;95495.31;;;20.14;100.00
11198;BME280;5655;48.744;9.162;2023-08-30T10:16:18;95490.63;;;20.45;100.00
11198;BME280;5655;48.744;9.162;2023-08-30T10:18:47;95484.09;;;20.33;100.00
11198;BME280;5655;48.744;9.162;2023-08-30T10:21:18;95482.06;;;20.56;100.00
11198;BME280;5655;48.744;9.162;2023-08-30T10:23:44;95491.78;;;20.75;100.00
11198;BME280;5655;48.744;9.162;2023-08-30T10:26:12;95486.69;;;21.04;100.00
11198;BME280;5655;48.744;9.162;2023-08-30T10:28:38;95482.91;;;20.83;100.00
11198;BME280;5655;48.744;9.162;2023-08-30T10:31:05;95472.59;;;20.69;100.00
11198;BME280;5655;48.744;9.162;2023-08-30T10:33:30;95472.59;;;20.29;100.00
11198;BME280;5655;48.744;9.162;2023-08-30T10:36:04;95472.22;;;21.35;100.00
11198;BME280;5655;48.744;9.162;2023-08-30T10:38:32;95474.63;;;21.33;100.00
11198;BME280;5655;48.744;9.162;2023-08-30T10:41:08;95480.41;;;21.44;100.00
11198;BME280;5655;48.744;9.162;2023-08-30T10:43:34;95475.41;;;21.42;100.00
11198;BME280;5655;48.744;9.162;2023-08-30T10:46:05;95474.94;;;21.44;100.00
11198;BME280;5655;48.744;9.162;2023-08-30T10:48:40;95473.88;;;21.32;100.00
11198;BME280;5655;48.744;9.162;2023-08-30T10:51:21;95466.91;;;21.04;100.00
11198;BME280;5655;48.744;9.162;2023-08-30T10:53:59;95474.34;;;21.40;100.00
11198;BME280;5655;48.744;9.162;2023-08-30T10:56:29;95469.78;;;21.46;100.00
11198;BME280;5655;48.744;9.162;2023-08-30T10:58:54;95464.34;;;21.18;100.00
11198;BME280;5655;48.744;9.162;2023-08-30T11:01:20;95456.56;;;21.90;100.00
11198;BME280;5655;48.744;9.162;2023-08-30T11:03:45;95466.72;;;21.98;100.00
11198;BME280;5655;48.744;9.162;2023-08-30T11:06:14;95465.66;;;21.96;100.00
11198;BME280;5655;48.744;9.162;2023-08-30T11:08:39;95462.75;;;22.08;100.00
11198;BME280;5655;48.744;9.162;2023-08-30T11:11:07;95463.44;;;22.18;100.00
11198;BME280;5655;48.744;9.162;2023-08-30T11:13:34;95459.91;;;22.36;100.00
11198;BME280;5655;48.744;9.162;2023-08-30T11:16:00;95459.84;;;22.45;100.00
11198;BME280;5655;48.744;9.162;2023-08-30T11:18:26;95462.41;;;22.48;100.00
11198;BME280;5655;48.744;9.162;2023-08-30T11:21:01;95457.47;;;22.71;100.00
11198;BME280;5655;48.744;9.162;2023-08-30T11:23:27;95453.47;;;23.04;100.00
11198;BME280;5655;48.744;9.162;2023-08-30T11:25:52;95449.41;;;23.00;100.00
11198;BME280;5655;48.744;9.162;2023-08-30T11:28:24;95454.47;;;22.92;100.00
11198;BME280;5655;48.744;9.162;2023-08-30T11:30:53;95447.06;;;22.60;100.00
11198;BME280;5655;48.744;9.162;2023-08-30T11:33:18;95452.25;;;22.49;100.00
11198;BME280;5655;48.744;9.162;2023-08-30T11:35:44;95439.44;;;22.40;100.00
11198;BME280;5655;48.744;9.162;2023-08-30T11:38:10;95437.94;;;21.88;100.00
11198;BME280;5655;48.744;9.162;2023-08-30T11:40:36;95452.16;;;22.01;100.00
11198;BME280;5655;48.744;9.162;2023-08-30T11:43:02;95445.97;;;22.34;100.00
11198;BME280;5655;48.744;9.162;2023-08-30T11:45:28;95446.72;;;21.92;100.00
11198;BME280;5655;48.744;9.162;2023-08-30T11:47:58;95452.03;;;21.87;100.00
11198;BME280;5655;48.744;9.162;2023-08-30T11:50:23;95465.25;;;21.52;100.00
11198;BME280;5655;48.744;9.162;2023-08-30T11:52:49;95463.44;;;20.45;100.00
11198;BME280;5655;48.744;9.162;2023-08-30T11:55:15;95472.31;;;20.36;100.00
11198;BME280;5655;48.744;9.162;2023-08-30T11:57:43;95471.34;;;20.21;100.00
11198;BME280;5655;48.744;9.162;2023-08-30T12:00:10;95466.63;;;19.82;100.00
11198;BME280;5655;48.744;9.162;2023-08-30T12:02:36;95471.69;;;19.71;100.00
11198;BME280;5655;48.744;9.162;2023-08-30T12:05:01;95463.06;;;19.29;100.00
11198;BME280;5655;48.744;9.162;2023-08-30T12:07:26;95463.03;;;18.85;100.00
11198;BME280;5655;48.744;9.162;2023-08-30T12:09:52;95456.13;;;18.46;100.00
11198;BME280;5655;48.744;9.162;2023-08-30T12:12:18;95431.31;;;18.35;100.00
11198;BME280;5655;48.744;9.162;2023-08-30T12:14:44;95422.00;;;18.11;100.00
11198;BME280;5655;48.744;9.162;2023-08-30T12:17:09;95414.00;;;18.20;100.00
11198;BME280;5655;48.744;9.162;2023-08-30T12:19:37;95420.38;;;18.01;100.00
11198;BME280;5655;48.744;9.162;2023-08-30T12:22:08;95412.69;;;18.12;100.00
11198;BME280;5655;48.744;9.162;2023-08-30T12:24:43;95405.97;;;18.17;100.00
11198;BME280;5655;48.744;9.162;2023-08-30T12:27:09;95409.56;;;18.01;100.00
11198;BME280;5655;48.744;9.162;2023-08-30T12:29:34;95382.03;;;18.15;100.00
11198;BME280;5655;48.744;9.162;2023-08-30T12:31:59;95388.84;;;18.32;100.00
11198;BME280;5655;48.744;9.162;2023-08-30T12:34:25;95382.97;;;18.46;100.00
11198;BME280;5655;48.744;9.162;2023-08-30T12:36:50;95395.94;;;18.51;100.00
11198;BME280;5655;48.744;9.162;2023-08-30T12:39:16;95385.09;;;18.51;100.00
11198;BME280;5655;48.744;9.162;2023-08-30T12:41:41;95380.66;;;18.57;100.00
11198;BME280;5655;48.744;9.162;2023-08-30T12:44:08;95379.59;;;18.42;100.00
11198;BME280;5655;48.744;9.162;2023-08-30T12:46:33;95386.81;;;18.71;100.00
11198;BME280;5655;48.744;9.162;2023-08-30T12:48:58;95372.84;;;18.59;100.00
11198;BME280;5655;48.744;9.162;2023-08-30T12:51:24;95387.28;;;18.91;100.00
11198;BME280;5655;48.744;9.162;2023-08-30T12:53:49;95373.53;;;18.85;100.00
11198;BME280;5655;48.744;9.162;2023-08-30T12:56:14;95359.44;;;18.78;100.00
11198;BME280;5655;48.744;9.162;2023-08-30T12:58:40;95376.22;;;19.29;100.00
11198;BME280;5655;48.744;9.162;2023-08-30T13:01:05;95380.88;;;19.19;100.00